createdAt,value
2022-08-18T00:04:46.834Z,9.82
2022-08-18T00:11:43.979Z,11.02
2022-08-18T00:18:29.506Z,9.93
2022-08-18T00:32:16.664Z,11.50
2022-08-18T00:39:02.230Z,10.75
2022-08-18T00:45:47.832Z,11.23
2022-08-18T00:52:36.607Z,12.85
2022-08-18T00:59:28.808Z,12.40
2022-08-18T01:06:23.785Z,10.60
2022-08-18T01:13:12.717Z,11.90
2022-08-18T01:20:11.982Z,9.95
2022-08-18T01:27:00.627Z,10.55
2022-08-18T01:33:48.145Z,10.52
2022-08-18T01:41:11.076Z,9.98
2022-08-18T01:47:47.619Z,8.93
2022-08-18T01:54:34.122Z,8.53
2022-08-18T02:01:21.030Z,8.63
2022-08-18T02:08:10.737Z,9.02
2022-08-18T02:14:57.210Z,8.48
2022-08-18T02:21:42.750Z,8.10
2022-08-18T02:28:31.145Z,9.35
2022-08-18T02:35:16.666Z,8.93
2022-08-18T02:42:05.128Z,9.35
2022-08-18T03:02:42.152Z,8.93
2022-08-18T03:09:30.314Z,9.38
2022-08-18T03:16:16.000Z,9.32
2022-08-18T03:23:09.984Z,8.93
2022-08-18T03:29:55.892Z,8.73
2022-08-18T03:36:45.568Z,8.48
2022-08-18T03:43:49.655Z,8.93
2022-08-18T03:50:37.997Z,8.75
2022-08-18T03:57:23.585Z,8.90
2022-08-18T04:04:15.124Z,9.02
2022-08-18T04:11:00.600Z,8.82
2022-08-18T04:18:03.068Z,9.90
2022-08-18T04:24:53.637Z,11.10
2022-08-18T04:31:39.471Z,8.25
2022-08-18T04:38:26.126Z,8.73
2022-08-18T04:45:14.626Z,13.65
2022-08-18T04:52:37.140Z,9.07
2022-08-18T04:59:19.102Z,8.10
2022-08-18T05:06:10.055Z,8.90
2022-08-18T05:12:55.712Z,9.00
2022-08-18T05:26:32.196Z,11.30
2022-08-18T05:33:17.993Z,9.75
2022-08-18T05:40:11.384Z,9.15
2022-08-18T05:47:06.653Z,9.02
2022-08-18T05:54:05.234Z,10.23
2022-08-18T06:00:59.971Z,9.02
2022-08-18T06:07:58.509Z,9.80
2022-08-18T06:14:44.066Z,9.50
2022-08-18T06:28:27.712Z,10.57
2022-08-18T06:35:24.442Z,9.25
2022-08-18T06:42:09.961Z,10.00
2022-08-18T06:49:03.754Z,9.63
2022-08-18T06:55:53.160Z,9.88
2022-08-18T07:02:51.245Z,10.60
2022-08-18T07:09:39.424Z,10.68
2022-08-18T07:23:44.268Z,10.50
2022-08-18T07:30:36.962Z,11.05
2022-08-18T07:37:30.019Z,11.40
2022-08-18T07:44:27.315Z,13.35
2022-08-18T07:51:30.414Z,12.95
2022-08-18T07:58:30.189Z,12.90
2022-08-18T08:05:24.716Z,12.55
2022-08-18T08:12:26.433Z,13.15
2022-08-18T08:19:58.828Z,14.00
2022-08-18T08:26:56.477Z,12.82
2022-08-18T08:33:50.699Z,13.35
2022-08-18T08:40:48.501Z,13.20
2022-08-18T08:47:41.728Z,13.60
2022-08-18T08:54:43.168Z,14.85
2022-08-18T09:01:38.462Z,15.13
2022-08-18T09:09:01.943Z,14.52
2022-08-18T09:16:18.324Z,16.98
2022-08-18T09:23:11.907Z,14.90
2022-08-18T09:30:00.781Z,15.98
2022-08-18T09:37:06.673Z,15.57
2022-08-18T09:44:21.145Z,17.95
2022-08-18T09:59:10.766Z,17.20
2022-08-18T10:06:18.309Z,17.20
2022-08-18T10:13:21.589Z,16.75
2022-08-18T10:20:30.398Z,16.25
2022-08-18T10:27:51.719Z,17.47
2022-08-18T10:42:05.548Z,19.58
2022-08-18T10:49:07.007Z,20.70
2022-08-18T10:56:03.131Z,22.77
2022-08-18T11:10:32.324Z,20.67
2022-08-18T11:17:42.826Z,19.63
2022-08-18T11:24:35.520Z,19.00
2022-08-18T11:31:23.320Z,24.10
2022-08-18T11:38:20.765Z,27.23
2022-08-18T11:45:19.818Z,25.85
2022-08-18T11:52:26.350Z,24.75
2022-08-18T11:59:55.056Z,23.58
2022-08-18T12:07:00.716Z,22.23
2022-08-18T12:14:32.287Z,22.17
2022-08-18T12:21:13.851Z,21.42
2022-08-18T12:28:01.920Z,19.45
2022-08-18T12:34:47.432Z,16.52
2022-08-18T12:41:33.017Z,21.20
2022-08-18T12:48:22.400Z,19.05
2022-08-18T12:55:21.324Z,20.20
2022-08-18T13:02:09.763Z,20.10
2022-08-18T13:08:59.457Z,20.10
2022-08-18T13:15:58.285Z,20.35
2022-08-18T13:22:44.953Z,22.88
2022-08-18T13:29:33.124Z,18.23
2022-08-18T13:36:19.009Z,16.55
2022-08-18T13:43:04.642Z,18.38
2022-08-18T13:49:58.855Z,17.30
2022-08-18T13:56:51.812Z,16.30
2022-08-18T14:03:46.993Z,17.25
2022-08-18T14:10:36.357Z,14.43
2022-08-18T14:17:22.649Z,12.45
2022-08-18T14:24:30.357Z,12.30
2022-08-18T14:31:20.570Z,13.73
2022-08-18T14:38:10.081Z,11.40
2022-08-18T14:45:17.309Z,12.60
2022-08-18T14:52:05.995Z,12.65
2022-08-18T14:58:59.611Z,13.93
2022-08-18T15:05:46.285Z,12.80
2022-08-18T15:12:35.056Z,12.85
2022-08-18T15:19:24.647Z,13.10
2022-08-18T15:26:31.192Z,13.15
2022-08-18T15:33:23.601Z,13.07
2022-08-18T15:40:30.141Z,12.52
2022-08-18T15:47:20.642Z,11.02
2022-08-18T15:54:09.991Z,11.82
2022-08-18T16:00:58.918Z,11.70
2022-08-18T16:07:46.021Z,11.60
2022-08-18T16:14:34.673Z,11.45
2022-08-18T16:21:23.433Z,11.73
2022-08-18T16:28:10.183Z,10.00
2022-08-18T16:34:59.010Z,10.85
2022-08-18T16:41:44.508Z,11.07
2022-08-18T16:48:29.984Z,11.15
2022-08-18T16:55:18.059Z,11.82
2022-08-18T17:02:30.710Z,18.45
2022-08-18T17:09:16.568Z,17.58
2022-08-18T17:16:11.140Z,16.33
2022-08-18T17:22:56.999Z,15.70
2022-08-18T17:29:51.109Z,16.25
2022-08-18T17:36:52.491Z,15.67
2022-08-18T17:51:06.864Z,15.63
2022-08-18T17:58:02.128Z,16.90
2022-08-18T18:04:49.410Z,17.17
2022-08-18T18:11:37.935Z,17.35
2022-08-18T18:18:41.973Z,18.10
2022-08-18T18:25:35.845Z,18.73
2022-08-18T18:32:30.844Z,17.52
2022-08-18T18:39:33.129Z,19.27
2022-08-18T18:46:34.132Z,18.10
2022-08-18T18:53:31.750Z,16.73
2022-08-18T19:00:30.019Z,18.45
2022-08-18T19:07:21.536Z,22.05
2022-08-18T19:14:14.256Z,17.30
2022-08-18T19:22:03.459Z,17.77
2022-08-18T19:35:12.143Z,15.63
2022-08-18T19:42:09.390Z,15.43
2022-08-18T19:49:02.611Z,15.63
2022-08-18T19:56:12.513Z,16.13
2022-08-18T20:03:44.925Z,15.43
2022-08-18T20:10:50.712Z,14.70
2022-08-18T20:17:36.328Z,15.27
2022-08-18T20:24:50.357Z,16.35
2022-08-18T20:31:55.183Z,15.75
2022-08-18T20:38:45.602Z,16.80
2022-08-18T20:45:42.679Z,16.10
2022-08-18T20:52:44.058Z,17.70
2022-08-18T20:59:45.476Z,16.35
2022-08-18T21:06:44.546Z,16.35
2022-08-18T21:13:40.594Z,18.02
2022-08-18T21:20:27.397Z,16.45
2022-08-18T21:27:29.096Z,17.73
2022-08-18T21:34:20.755Z,18.92
2022-08-18T21:41:07.561Z,17.58
2022-08-18T21:47:59.348Z,16.42
2022-08-18T21:54:45.412Z,17.33
2022-08-18T22:01:31.676Z,17.67
2022-08-18T22:08:27.040Z,18.15
2022-08-18T22:15:16.757Z,18.35
2022-08-18T22:22:26.903Z,17.38
2022-08-18T22:29:32.559Z,17.55
2022-08-18T22:36:23.079Z,17.63
2022-08-18T22:43:08.652Z,17.90
2022-08-18T22:49:57.585Z,18.10
2022-08-18T22:56:54.134Z,18.08
2022-08-18T23:03:43.415Z,18.23
2022-08-18T23:10:31.608Z,19.33
2022-08-18T23:17:17.444Z,18.02
2022-08-18T23:24:02.979Z,17.75
2022-08-18T23:30:53.557Z,19.52
2022-08-18T23:37:39.570Z,20.45
2022-08-18T23:44:27.689Z,20.02
2022-08-18T23:51:16.254Z,19.25
2022-08-18T23:58:02.060Z,19.73
